createdAt,value
2023-05-24T00:00:32.434Z,85.7955
2023-05-24T00:01:34.126Z,84.8384
2023-05-24T00:02:35.922Z,85.1128
2023-05-24T00:03:37.833Z,85.1721
2023-05-24T00:04:39.591Z,84.6300
2023-05-24T00:05:41.260Z,83.7691
2023-05-24T00:06:42.905Z,85.7471
2023-05-24T00:07:44.608Z,85.0365
2023-05-24T00:08:46.280Z,85.8400
2023-05-24T00:09:47.962Z,84.7343
2023-05-24T00:10:49.639Z,85.0611
2023-05-24T00:11:51.322Z,84.2397
2023-05-24T00:12:53.003Z,85.0345
2023-05-24T00:13:54.693Z,84.3945
2023-05-24T00:14:56.385Z,84.8675
2023-05-24T00:15:58.065Z,84.2865
2023-05-24T00:16:59.733Z,85.5168
2023-05-24T00:18:01.568Z,84.8740
2023-05-24T00:19:03.265Z,85.0342
2023-05-24T00:20:07.290Z,85.0951
2023-05-24T00:21:05.761Z,84.8947
2023-05-24T00:22:07.467Z,84.6233
2023-05-24T00:23:09.141Z,84.3379
2023-05-24T00:24:10.846Z,83.1687
2023-05-24T00:25:12.538Z,82.2729
2023-05-24T00:26:14.202Z,83.3069
2023-05-24T00:27:15.909Z,83.1214
2023-05-24T00:28:17.569Z,83.7756
2023-05-24T00:29:19.269Z,83.6813
2023-05-24T00:30:20.975Z,82.0937
2023-05-24T00:31:22.704Z,83.5616
2023-05-24T00:32:24.369Z,81.6286
2023-05-24T00:33:26.055Z,82.5746
2023-05-24T00:34:27.732Z,84.2095
2023-05-24T00:35:29.412Z,84.4120
2023-05-24T00:36:31.176Z,83.3115
2023-05-24T00:37:32.811Z,84.5474
2023-05-24T00:38:34.482Z,84.2140
2023-05-24T00:39:36.158Z,84.4940
2023-05-24T00:40:38.879Z,84.8725
2023-05-24T00:41:40.675Z,82.9235
2023-05-24T00:42:42.588Z,83.1750
2023-05-24T00:43:44.513Z,82.7542
2023-05-24T00:44:46.185Z,84.1983
2023-05-24T00:45:47.880Z,82.9677
2023-05-24T00:46:49.526Z,82.2477
2023-05-24T00:47:51.260Z,84.4000
2023-05-24T00:48:52.915Z,84.1526
2023-05-24T00:49:54.596Z,83.8579
2023-05-24T00:50:56.261Z,84.6108
2023-05-24T00:51:57.965Z,84.9896
2023-05-24T00:52:59.659Z,85.0828
2023-05-24T00:54:02.359Z,84.1939
2023-05-24T00:55:04.053Z,83.8755
2023-05-24T00:56:05.727Z,84.1466
2023-05-24T00:57:07.389Z,85.3984
2023-05-24T00:58:09.086Z,82.5224
2023-05-24T00:59:10.763Z,83.5170
2023-05-24T01:00:12.452Z,85.2995
2023-05-24T01:01:14.147Z,85.6345
2023-05-24T01:02:15.841Z,85.2418
2023-05-24T01:03:17.661Z,84.0174
2023-05-24T01:04:19.555Z,85.6558
2023-05-24T01:05:21.477Z,86.1690
2023-05-24T01:06:24.522Z,85.8667
2023-05-24T01:07:26.410Z,85.9108
2023-05-24T01:08:28.328Z,84.7075
2023-05-24T01:09:30.242Z,85.2811
2023-05-24T01:10:32.194Z,85.0841
2023-05-24T01:11:34.087Z,85.8011
2023-05-24T01:12:36.012Z,85.9016
2023-05-24T01:13:37.931Z,83.2085
2023-05-24T01:14:39.863Z,83.5066
2023-05-24T01:15:41.811Z,84.3135
2023-05-24T01:16:43.757Z,85.6508
2023-05-24T01:17:45.709Z,85.8006
2023-05-24T01:18:47.605Z,83.3512
2023-05-24T01:19:49.637Z,83.6853
2023-05-24T01:20:51.612Z,82.8982
2023-05-24T01:21:53.516Z,84.4392
2023-05-24T01:22:55.440Z,82.4798
2023-05-24T01:23:57.138Z,83.9548
2023-05-24T01:24:58.836Z,84.0483
2023-05-24T01:26:00.740Z,84.1543
2023-05-24T01:27:02.658Z,85.4995
2023-05-24T01:28:04.558Z,85.4821
2023-05-24T01:29:06.499Z,85.1013
2023-05-24T01:30:08.209Z,82.7929
2023-05-24T01:31:09.891Z,85.0467
2023-05-24T01:32:11.586Z,84.3564
2023-05-24T01:33:13.259Z,84.0814
2023-05-24T01:34:14.949Z,83.0107
2023-05-24T01:35:16.610Z,84.8772
2023-05-24T01:36:18.290Z,84.1525
2023-05-24T01:37:20.041Z,84.0115
2023-05-24T01:38:21.711Z,82.6897
2023-05-24T01:39:23.426Z,83.0127
2023-05-24T01:40:25.125Z,83.1540
2023-05-24T01:41:26.801Z,83.2561
2023-05-24T01:42:28.718Z,83.0722
2023-05-24T01:43:30.651Z,83.8020
2023-05-24T01:44:32.563Z,83.6966
2023-05-24T01:45:34.499Z,84.4622
2023-05-24T01:46:36.441Z,85.1147
2023-05-24T01:47:38.397Z,83.8877
2023-05-24T01:48:40.288Z,82.7773
2023-05-24T01:49:42.194Z,84.1769
2023-05-24T01:50:44.271Z,83.3984
2023-05-24T01:51:46.240Z,84.6801
2023-05-24T01:52:48.173Z,85.6872
2023-05-24T01:53:50.112Z,83.7519
2023-05-24T01:54:52.021Z,84.1704
2023-05-24T01:55:53.954Z,83.0338
2023-05-24T01:56:55.836Z,84.4118
2023-05-24T01:57:57.765Z,84.1518
2023-05-24T01:58:59.676Z,85.1295
2023-05-24T02:00:01.580Z,83.3568
2023-05-24T02:01:03.555Z,84.2398
2023-05-24T02:02:05.448Z,84.3075
2023-05-24T02:03:07.676Z,84.1533
2023-05-24T02:04:09.631Z,84.8319
2023-05-24T02:05:11.544Z,84.9081
2023-05-24T02:06:13.452Z,85.5983
2023-05-24T02:07:15.364Z,86.1625
2023-05-24T02:08:17.323Z,85.2495
2023-05-24T02:09:19.202Z,84.4189
2023-05-24T02:10:21.121Z,84.7924
2023-05-24T02:11:23.047Z,83.1115
2023-05-24T02:12:25.012Z,84.6840
2023-05-24T02:13:26.960Z,84.2866
2023-05-24T02:14:28.842Z,84.0299
2023-05-24T02:15:30.766Z,83.4378
2023-05-24T02:16:32.633Z,83.0710
2023-05-24T02:17:34.601Z,85.0388
2023-05-24T02:18:36.500Z,83.2356
2023-05-24T02:19:38.417Z,82.8156
2023-05-24T02:20:40.668Z,85.0947
2023-05-24T02:21:42.698Z,85.2784
2023-05-24T02:22:44.625Z,84.9655
2023-05-24T02:23:46.523Z,85.8742
2023-05-24T02:24:48.526Z,85.2424
2023-05-24T02:25:50.472Z,85.8635
2023-05-24T02:26:52.431Z,85.2737
2023-05-24T02:27:54.323Z,85.0414
2023-05-24T02:28:56.257Z,85.3680
2023-05-24T02:29:58.148Z,85.8379
2023-05-24T02:31:00.126Z,83.4939
2023-05-24T02:32:02.054Z,83.9204
2023-05-24T02:33:04.039Z,84.8997
2023-05-24T02:34:05.917Z,85.1180
2023-05-24T02:35:07.830Z,85.7502
2023-05-24T02:36:09.726Z,84.6604
2023-05-24T02:37:11.699Z,85.4762
2023-05-24T02:38:13.627Z,84.6380
2023-05-24T02:39:15.583Z,86.0682
2023-05-24T02:40:17.500Z,85.8011
2023-05-24T02:41:19.424Z,85.2882
2023-05-24T02:42:21.355Z,84.5300
2023-05-24T02:43:23.256Z,85.3100
2023-05-24T02:44:25.155Z,84.9223
2023-05-24T02:45:27.096Z,84.4995
2023-05-24T02:46:29.037Z,84.2957
2023-05-24T02:47:30.929Z,84.9232
2023-05-24T02:48:32.808Z,84.8037
2023-05-24T02:49:34.714Z,85.0301
2023-05-24T02:50:36.644Z,85.4605
2023-05-24T02:51:38.540Z,84.7913
2023-05-24T02:52:40.474Z,84.8181
2023-05-24T02:53:42.388Z,85.8696
2023-05-24T02:54:44.299Z,84.8966
2023-05-24T02:55:46.213Z,85.7603
2023-05-24T02:56:48.124Z,85.5915
2023-05-24T02:57:50.067Z,84.6695
2023-05-24T02:58:51.958Z,85.0428
2023-05-24T02:59:53.862Z,85.8082
2023-05-24T03:00:55.773Z,85.3296
2023-05-24T03:01:57.924Z,84.4885
2023-05-24T03:02:59.950Z,85.9955
2023-05-24T03:04:02.043Z,85.1015
2023-05-24T03:05:03.970Z,86.1785
2023-05-24T03:06:05.901Z,86.1613
2023-05-24T03:07:07.834Z,85.3524
2023-05-24T03:08:09.722Z,85.6463
2023-05-24T03:09:11.656Z,84.7602
2023-05-24T03:10:15.834Z,85.9498
2023-05-24T03:11:14.613Z,85.6291
2023-05-24T03:12:16.529Z,84.6763
2023-05-24T03:13:18.420Z,84.6591
2023-05-24T03:14:20.348Z,85.5202
2023-05-24T03:15:22.263Z,85.3302
2023-05-24T03:16:24.226Z,86.0898
2023-05-24T03:17:26.146Z,85.2167
2023-05-24T03:18:28.034Z,85.2114
2023-05-24T03:19:29.949Z,85.1689
2023-05-24T03:20:31.930Z,84.8069
2023-05-24T03:21:33.819Z,85.5402
2023-05-24T03:22:35.774Z,84.2089
2023-05-24T03:23:37.684Z,84.5257
2023-05-24T03:24:39.586Z,85.6285
2023-05-24T03:25:41.497Z,83.8103
2023-05-24T03:26:43.412Z,84.5748
2023-05-24T03:27:45.343Z,84.6704
2023-05-24T03:28:47.271Z,84.5125
2023-05-24T03:29:49.178Z,84.7914
2023-05-24T03:30:51.087Z,84.8988
2023-05-24T03:31:53.087Z,84.4865
2023-05-24T03:32:55.000Z,84.4244
2023-05-24T03:33:56.870Z,85.2886
2023-05-24T03:34:58.786Z,84.1477
2023-05-24T03:36:00.696Z,84.8298
2023-05-24T03:37:02.605Z,84.3170
2023-05-24T03:38:04.527Z,85.8371
2023-05-24T03:39:06.435Z,84.5908
2023-05-24T03:40:08.346Z,85.8184
2023-05-24T03:41:10.266Z,85.4704
2023-05-24T03:42:12.187Z,85.2806
2023-05-24T03:43:14.105Z,85.4041
2023-05-24T03:44:16.026Z,85.6462
2023-05-24T03:45:26.981Z,86.1946
2023-05-24T03:46:19.198Z,87.0528
2023-05-24T03:47:21.186Z,86.3819
2023-05-24T03:48:24.081Z,85.2469
2023-05-24T03:49:26.015Z,86.2532
2023-05-24T03:50:27.918Z,85.0368
2023-05-24T03:51:29.916Z,86.0867
2023-05-24T03:52:31.759Z,85.5450
2023-05-24T03:53:33.671Z,83.9965
2023-05-24T03:54:35.595Z,85.0834
2023-05-24T03:55:37.514Z,83.4903
2023-05-24T03:56:39.437Z,85.4574
2023-05-24T03:57:41.361Z,85.1384
2023-05-24T03:58:43.332Z,84.0647
2023-05-24T03:59:45.245Z,85.3327
2023-05-24T04:00:47.206Z,85.6322
2023-05-24T04:01:49.227Z,84.4776
2023-05-24T04:02:51.335Z,83.9662
2023-05-24T04:03:53.352Z,83.8276
2023-05-24T04:04:55.312Z,84.9815
2023-05-24T04:05:57.271Z,83.9426
2023-05-24T04:06:59.256Z,85.2646
2023-05-24T04:08:01.268Z,84.9444
2023-05-24T04:09:03.299Z,84.3771
2023-05-24T04:10:05.288Z,86.0985
2023-05-24T04:11:07.221Z,85.6118
2023-05-24T04:12:09.214Z,85.8029
2023-05-24T04:13:11.155Z,85.8774
2023-05-24T04:14:13.133Z,84.9143
2023-05-24T04:15:15.102Z,86.4124
2023-05-24T04:16:17.123Z,85.8270
2023-05-24T04:17:19.176Z,84.4472
2023-05-24T04:18:21.204Z,86.0389
2023-05-24T04:19:23.158Z,85.7005
2023-05-24T04:20:25.187Z,84.0699
2023-05-24T04:21:27.157Z,82.8422
2023-05-24T04:22:29.161Z,83.7214
2023-05-24T04:23:31.164Z,82.6814
2023-05-24T04:24:33.157Z,84.7826
2023-05-24T04:25:35.137Z,85.9626
2023-05-24T04:26:37.105Z,84.7915
2023-05-24T04:27:39.123Z,84.5045
2023-05-24T04:28:41.163Z,84.9467
2023-05-24T04:29:43.110Z,83.5828
2023-05-24T04:30:45.048Z,84.2034
2023-05-24T04:31:47.198Z,84.8647
2023-05-24T04:32:49.286Z,85.0448
2023-05-24T04:33:51.263Z,86.1540
2023-05-24T04:34:53.232Z,85.1897
2023-05-24T04:35:55.296Z,85.8286
2023-05-24T04:36:57.241Z,85.3852
2023-05-24T04:37:59.228Z,84.8307
2023-05-24T04:39:01.207Z,84.7682
2023-05-24T04:40:03.238Z,86.1227
2023-05-24T04:41:05.184Z,86.4774
2023-05-24T04:42:07.150Z,85.9130
2023-05-24T04:43:09.152Z,84.3720
2023-05-24T04:44:11.193Z,84.7222
2023-05-24T04:45:13.282Z,84.8013
2023-05-24T04:46:16.220Z,85.8870
2023-05-24T04:47:18.243Z,84.4025
2023-05-24T04:48:20.210Z,83.7854
2023-05-24T04:49:22.119Z,84.5898
2023-05-24T04:50:23.890Z,82.7784
2023-05-24T04:51:25.654Z,84.9700
2023-05-24T04:52:27.431Z,84.6019
2023-05-24T04:53:29.230Z,83.2130
2023-05-24T04:54:31.279Z,85.5783
2023-05-24T04:55:33.346Z,85.2702
2023-05-24T04:56:35.338Z,83.0376
2023-05-24T04:57:37.311Z,84.0067
2023-05-24T04:58:39.500Z,84.1695
2023-05-24T04:59:41.392Z,83.5850
2023-05-24T05:00:43.560Z,84.2025
2023-05-24T05:01:45.601Z,81.9805
2023-05-24T05:02:47.609Z,83.4395
2023-05-24T05:03:49.573Z,82.9680
2023-05-24T05:04:51.343Z,81.9109
2023-05-24T05:05:53.169Z,82.8979
2023-05-24T05:06:54.906Z,84.5984
2023-05-24T05:07:56.715Z,83.9644
2023-05-24T05:08:58.534Z,83.9937
2023-05-24T05:10:00.638Z,84.3726
2023-05-24T05:11:02.618Z,84.7347
2023-05-24T05:12:04.576Z,84.7422
2023-05-24T05:13:06.524Z,83.5336
2023-05-24T05:14:08.459Z,85.1077
2023-05-24T05:15:10.491Z,84.9509
2023-05-24T05:16:12.500Z,84.4106
2023-05-24T05:17:14.461Z,84.5447
2023-05-24T05:18:16.546Z,83.5668
2023-05-24T05:19:18.517Z,85.3038
2023-05-24T05:20:20.527Z,83.9483
2023-05-24T05:21:22.455Z,84.2064
2023-05-24T05:23:25.823Z,85.3833
2023-05-24T05:24:27.808Z,84.5979
2023-05-24T05:25:29.856Z,83.5990
2023-05-24T05:26:31.857Z,83.4320
2023-05-24T05:27:33.869Z,84.0686
2023-05-24T05:28:35.678Z,83.7901
2023-05-24T05:29:37.408Z,85.2267
2023-05-24T05:30:39.155Z,85.3307
2023-05-24T05:31:41.140Z,85.4887
2023-05-24T05:32:43.321Z,85.2928
2023-05-24T05:33:46.313Z,83.7232
2023-05-24T05:34:48.336Z,83.9675
2023-05-24T05:35:51.753Z,85.6742
2023-05-24T05:36:51.474Z,85.9931
2023-05-24T05:37:53.428Z,84.6083
2023-05-24T05:38:55.453Z,85.6107
2023-05-24T05:39:57.443Z,84.5046
2023-05-24T05:40:59.506Z,86.1325
2023-05-24T05:42:01.474Z,86.2546
2023-05-24T05:43:03.415Z,85.5859
2023-05-24T05:44:05.451Z,85.1098
2023-05-24T05:45:07.469Z,86.2954
2023-05-24T05:46:09.493Z,86.7303
2023-05-24T05:47:11.481Z,86.4885
2023-05-24T05:48:13.396Z,84.6736
2023-05-24T05:49:15.404Z,84.2084
2023-05-24T05:50:17.594Z,85.0304
2023-05-24T05:51:19.647Z,85.5029
2023-05-24T05:52:21.571Z,85.4890
2023-05-24T05:53:23.553Z,84.4534
2023-05-24T05:54:25.513Z,84.4612
2023-05-24T05:55:27.380Z,83.5715
2023-05-24T05:56:29.315Z,84.7222
2023-05-24T05:57:31.269Z,85.2196
2023-05-24T05:58:33.342Z,84.5422
2023-05-24T05:59:35.327Z,85.3320
2023-05-24T06:00:38.116Z,85.5190
2023-05-24T06:01:40.191Z,84.5984
2023-05-24T06:02:42.149Z,85.5847
2023-05-24T06:03:45.458Z,84.3536
2023-05-24T06:04:47.656Z,85.3596
2023-05-24T06:05:49.645Z,85.3940
2023-05-24T06:06:51.687Z,84.4228
2023-05-24T06:07:53.427Z,84.0521
2023-05-24T06:08:55.211Z,84.5747
2023-05-24T06:09:57.003Z,83.9090
2023-05-24T06:10:58.743Z,84.1816
2023-05-24T06:12:00.469Z,84.3325
2023-05-24T06:13:02.288Z,84.7365
2023-05-24T06:14:04.077Z,82.5212
2023-05-24T06:15:05.827Z,84.1168
2023-05-24T06:16:07.668Z,82.5272
2023-05-24T06:17:09.351Z,83.6675
2023-05-24T06:18:11.058Z,81.6802
2023-05-24T06:19:12.843Z,82.4641
2023-05-24T06:20:14.641Z,81.7960
2023-05-24T06:21:16.383Z,82.6953
2023-05-24T06:22:18.167Z,82.3057
2023-05-24T06:23:19.903Z,81.6826
2023-05-24T06:24:21.710Z,82.6725
2023-05-24T06:25:23.509Z,83.6493
2023-05-24T06:26:25.313Z,83.8008
2023-05-24T06:27:27.044Z,83.1111
2023-05-24T06:28:28.778Z,82.4486
2023-05-24T06:29:30.830Z,84.6490
2023-05-24T06:30:32.626Z,82.8199
2023-05-24T06:31:34.392Z,82.5170
2023-05-24T06:32:36.460Z,81.3158
2023-05-24T06:33:38.383Z,81.8996
2023-05-24T06:34:40.690Z,83.3155
2023-05-24T06:35:42.461Z,82.7576
2023-05-24T06:36:44.255Z,83.9828
2023-05-24T06:37:46.065Z,81.8296
2023-05-24T06:38:47.801Z,81.4032
2023-05-24T06:39:49.595Z,81.3064
2023-05-24T06:40:51.328Z,83.0674
2023-05-24T06:41:53.047Z,82.1934
2023-05-24T06:42:54.760Z,82.5259
2023-05-24T06:43:56.661Z,83.6395
2023-05-24T06:44:58.440Z,82.4095
2023-05-24T06:46:00.165Z,84.5516
2023-05-24T06:47:01.956Z,84.9072
2023-05-24T06:48:03.812Z,84.1433
2023-05-24T06:49:05.619Z,84.5225
2023-05-24T06:50:07.388Z,83.8805
2023-05-24T06:51:09.119Z,83.5396
2023-05-24T06:52:10.907Z,85.1147
2023-05-24T06:53:13.058Z,85.1338
2023-05-24T06:54:15.061Z,84.0878
2023-05-24T06:55:17.015Z,85.8849
2023-05-24T06:56:19.111Z,85.6352
2023-05-24T06:57:21.046Z,83.8552
2023-05-24T06:58:22.776Z,82.4535
2023-05-24T06:59:24.605Z,84.7588
2023-05-24T07:00:26.363Z,85.5162
2023-05-24T07:01:28.083Z,85.3609
2023-05-24T07:02:29.869Z,85.3316
2023-05-24T07:03:31.628Z,84.7670
2023-05-24T07:04:33.427Z,84.3066
2023-05-24T07:05:35.153Z,84.3131
2023-05-24T07:06:36.863Z,84.5687
2023-05-24T07:07:38.643Z,84.7950
2023-05-24T07:08:40.438Z,83.9103
2023-05-24T07:09:42.224Z,83.7731
2023-05-24T07:10:44.179Z,82.5754
2023-05-24T07:11:46.570Z,82.4340
2023-05-24T07:12:48.368Z,81.9524
2023-05-24T07:13:50.101Z,82.4296
2023-05-24T07:14:51.858Z,82.1649
2023-05-24T07:15:53.602Z,82.6512
2023-05-24T07:16:55.539Z,83.7571
2023-05-24T07:17:58.512Z,82.4866
2023-05-24T07:19:01.889Z,82.3664
2023-05-24T07:20:02.726Z,81.3989
2023-05-24T07:21:04.680Z,79.8348
2023-05-24T07:22:06.704Z,80.6616
2023-05-24T07:23:08.638Z,82.4924
2023-05-24T07:24:10.665Z,81.5424
2023-05-24T07:25:12.623Z,81.1843
2023-05-24T07:26:14.660Z,82.2375
2023-05-24T07:27:16.612Z,82.5143
2023-05-24T07:28:18.659Z,82.2398
2023-05-24T07:29:20.428Z,82.8585
2023-05-24T07:30:31.784Z,82.9039
2023-05-24T07:31:23.249Z,83.8629
2023-05-24T07:32:24.996Z,83.1096
2023-05-24T07:33:27.686Z,83.8988
2023-05-24T07:34:29.610Z,82.9625
2023-05-24T07:35:31.344Z,83.2809
2023-05-24T07:36:34.832Z,83.2153
2023-05-24T07:37:33.479Z,82.2268
2023-05-24T07:38:35.260Z,81.7573
2023-05-24T07:39:37.017Z,82.9311
2023-05-24T07:40:39.005Z,83.6970
2023-05-24T07:41:41.012Z,84.0193
2023-05-24T07:42:43.117Z,82.7557
2023-05-24T07:43:45.094Z,82.7171
2023-05-24T07:44:46.818Z,82.6102
2023-05-24T07:45:48.556Z,81.7041
2023-05-24T07:46:50.435Z,81.7614
2023-05-24T07:47:53.308Z,80.2982
2023-05-24T07:48:53.617Z,81.6486
2023-05-24T07:49:55.389Z,81.4576
2023-05-24T07:50:57.149Z,82.2286
2023-05-24T07:51:58.864Z,82.7328
2023-05-24T07:53:00.596Z,81.6041
2023-05-24T07:54:02.374Z,80.6375
2023-05-24T07:55:04.145Z,81.7645
2023-05-24T07:56:05.882Z,81.5834
2023-05-24T07:57:09.453Z,81.1581
2023-05-24T07:58:07.988Z,80.6735
2023-05-24T07:59:09.766Z,82.0781
2023-05-24T08:00:11.506Z,82.4162
2023-05-24T08:01:13.218Z,82.2921
2023-05-24T08:02:15.019Z,82.2775
2023-05-24T08:03:16.817Z,82.5372
2023-05-24T08:04:18.553Z,80.7708
2023-05-24T08:05:20.283Z,80.5055
2023-05-24T08:06:22.238Z,81.6788
2023-05-24T08:07:24.034Z,81.3178
2023-05-24T08:08:25.740Z,81.1143
2023-05-24T08:09:27.450Z,82.7552
2023-05-24T08:10:29.188Z,81.4754
2023-05-24T08:11:30.992Z,80.5614
2023-05-24T08:12:32.731Z,81.9184
2023-05-24T08:13:34.459Z,83.3538
2023-05-24T08:14:36.190Z,82.3936
2023-05-24T08:15:37.948Z,82.0431
2023-05-24T08:16:39.849Z,82.6584
2023-05-24T08:17:41.638Z,81.7046
2023-05-24T08:18:43.419Z,81.3247
2023-05-24T08:19:45.224Z,80.4983
2023-05-24T08:20:47.194Z,80.4099
2023-05-24T08:21:48.892Z,81.1806
2023-05-24T08:22:50.763Z,80.0580
2023-05-24T08:23:52.629Z,81.5818
2023-05-24T08:24:54.365Z,82.6938
2023-05-24T08:25:56.062Z,82.0997
2023-05-24T08:26:57.805Z,79.9173
2023-05-24T08:27:59.561Z,80.5554
2023-05-24T08:29:01.348Z,82.3598
2023-05-24T08:30:03.091Z,81.6729
2023-05-24T08:31:05.134Z,81.9255
2023-05-24T08:32:07.504Z,81.6818
2023-05-24T08:33:09.365Z,81.9103
2023-05-24T08:34:11.119Z,81.9463
2023-05-24T08:35:21.102Z,81.2092
2023-05-24T08:36:14.124Z,81.7369
2023-05-24T08:37:16.400Z,81.3970
2023-05-24T08:38:18.093Z,80.1338
2023-05-24T08:39:19.868Z,80.5812
2023-05-24T08:40:21.597Z,81.8663
2023-05-24T08:41:23.291Z,79.5830
2023-05-24T08:42:25.074Z,79.7732
2023-05-24T08:43:26.826Z,80.9061
2023-05-24T08:44:28.535Z,81.1169
2023-05-24T08:45:30.314Z,80.8941
2023-05-24T08:46:32.105Z,82.5955
2023-05-24T08:47:33.977Z,81.4273
2023-05-24T08:48:35.983Z,82.4127
2023-05-24T08:49:37.823Z,81.3389
2023-05-24T08:50:39.627Z,79.6325
2023-05-24T08:51:41.408Z,80.9614
2023-05-24T08:52:43.139Z,80.0376
2023-05-24T08:53:44.874Z,79.6680
2023-05-24T08:54:46.604Z,80.8125
2023-05-24T08:55:48.479Z,80.6293
2023-05-24T08:56:50.245Z,78.7007
2023-05-24T08:57:51.962Z,78.7127
2023-05-24T08:59:00.432Z,78.6469
2023-05-24T08:59:55.637Z,78.1184
2023-05-24T09:00:57.472Z,79.6545
2023-05-24T09:01:59.175Z,79.2179
2023-05-24T09:03:01.035Z,79.8861
2023-05-24T09:04:03.864Z,78.5483
2023-05-24T09:05:05.628Z,79.9499
2023-05-24T09:06:07.359Z,80.2941
2023-05-24T09:07:09.192Z,79.1168
2023-05-24T09:08:11.261Z,78.9440
2023-05-24T09:09:13.153Z,80.2896
2023-05-24T09:10:15.081Z,78.5697
2023-05-24T09:11:17.035Z,80.0370
2023-05-24T09:12:32.482Z,79.0465
2023-05-24T09:13:20.862Z,78.5439
2023-05-24T09:14:22.814Z,77.2228
2023-05-24T09:15:24.823Z,79.1306
2023-05-24T09:16:26.910Z,77.7724
2023-05-24T09:17:29.705Z,78.9318
2023-05-24T09:18:30.914Z,77.9365
2023-05-24T09:19:32.920Z,76.5762
2023-05-24T09:20:34.927Z,78.2994
2023-05-24T09:21:36.764Z,77.3897
2023-05-24T09:22:40.766Z,78.9060
2023-05-24T09:23:40.042Z,77.7587
2023-05-24T09:24:41.823Z,76.8034
2023-05-24T09:25:43.614Z,78.1073
2023-05-24T09:26:45.666Z,77.7805
2023-05-24T09:27:49.008Z,77.5123
2023-05-24T09:28:47.693Z,78.0280
2023-05-24T09:29:49.633Z,77.8201
2023-05-24T09:30:51.541Z,77.4443
2023-05-24T09:31:53.608Z,77.1385
2023-05-24T09:32:55.589Z,77.3799
2023-05-24T09:33:57.411Z,77.2182
2023-05-24T09:34:59.146Z,78.5396
2023-05-24T09:36:00.851Z,77.2639
2023-05-24T09:37:02.669Z,76.9069
2023-05-24T09:38:04.563Z,76.9011
2023-05-24T09:39:06.312Z,76.7702
2023-05-24T09:40:08.051Z,77.4929
2023-05-24T09:41:09.749Z,76.7953
2023-05-24T09:42:11.604Z,76.4508
2023-05-24T09:43:13.304Z,75.2768
2023-05-24T09:44:15.028Z,75.4966
2023-05-24T09:45:16.778Z,76.2922
2023-05-24T09:46:18.611Z,75.6676
2023-05-24T09:47:21.390Z,75.7794
2023-05-24T09:48:23.234Z,75.3476
2023-05-24T09:49:24.950Z,74.2267
2023-05-24T09:50:26.706Z,75.7666
2023-05-24T09:51:28.499Z,76.4889
2023-05-24T09:52:30.215Z,76.1233
2023-05-24T09:53:31.949Z,75.5358
2023-05-24T09:54:33.839Z,76.8884
2023-05-24T09:55:35.721Z,76.8145
2023-05-24T09:56:37.445Z,76.9842
2023-05-24T09:57:39.139Z,76.0007
2023-05-24T09:58:40.867Z,77.0505
2023-05-24T09:59:42.623Z,75.9449
2023-05-24T10:00:44.605Z,76.3164
2023-05-24T10:01:46.720Z,77.2182
2023-05-24T10:03:49.789Z,75.8195
2023-05-24T10:04:51.614Z,75.2687
2023-05-24T10:05:53.258Z,75.4962
2023-05-24T10:06:55.030Z,75.9218
2023-05-24T10:07:56.804Z,74.9619
2023-05-24T10:08:58.577Z,74.9988
2023-05-24T10:10:00.291Z,75.1957
2023-05-24T10:11:02.014Z,74.6599
2023-05-24T10:12:03.787Z,74.4736
2023-05-24T10:13:05.534Z,74.1016
2023-05-24T10:14:07.285Z,74.3175
2023-05-24T10:15:09.030Z,74.7771
2023-05-24T10:16:10.809Z,74.8267
2023-05-24T10:17:12.750Z,74.9235
2023-05-24T10:18:14.707Z,75.1833
2023-05-24T10:19:17.474Z,75.1926
2023-05-24T10:20:19.278Z,73.7609
2023-05-24T10:21:21.037Z,73.3548
2023-05-24T10:22:22.762Z,74.2115
2023-05-24T10:23:24.573Z,73.8228
2023-05-24T10:24:26.375Z,74.6176
2023-05-24T10:25:28.091Z,74.8957
2023-05-24T10:26:29.825Z,74.6464
2023-05-24T10:27:31.557Z,74.9717
2023-05-24T10:28:33.322Z,74.2262
2023-05-24T10:29:35.080Z,73.8963
2023-05-24T10:30:36.846Z,74.8047
2023-05-24T10:31:38.654Z,75.2806
2023-05-24T10:32:40.488Z,74.4090
2023-05-24T10:33:42.207Z,73.4080
2023-05-24T10:34:43.925Z,72.9154
2023-05-24T10:35:46.689Z,74.8358
2023-05-24T10:36:48.477Z,74.2871
2023-05-24T10:37:50.297Z,73.2480
2023-05-24T10:38:51.996Z,73.9317
2023-05-24T10:39:53.758Z,72.0716
2023-05-24T10:40:55.510Z,73.9247
2023-05-24T10:41:57.232Z,72.8755
2023-05-24T10:42:58.960Z,71.5650
2023-05-24T10:44:09.870Z,73.0261
2023-05-24T10:45:01.715Z,72.8372
2023-05-24T10:46:03.460Z,73.3323
2023-05-24T10:47:05.213Z,73.6396
2023-05-24T10:48:06.987Z,73.5107
2023-05-24T10:50:09.820Z,74.1529
2023-05-24T10:51:11.661Z,72.4045
2023-05-24T10:52:13.474Z,72.2031
2023-05-24T10:53:15.209Z,73.6728
2023-05-24T10:54:16.949Z,72.1647
2023-05-24T10:55:18.631Z,73.4889
2023-05-24T10:56:20.447Z,73.9580
2023-05-24T10:57:22.190Z,74.3854
2023-05-24T10:58:23.886Z,73.8057
2023-05-24T10:59:25.854Z,74.9802
2023-05-24T11:01:28.623Z,74.6436
2023-05-24T11:02:30.362Z,74.8185
2023-05-24T11:03:32.132Z,73.8063
2023-05-24T11:04:33.872Z,73.3477
2023-05-24T11:05:35.630Z,71.8784
2023-05-24T11:07:38.640Z,73.7944
2023-05-24T11:08:40.381Z,73.8698
2023-05-24T11:09:42.104Z,74.6207
2023-05-24T11:10:44.153Z,74.9203
2023-05-24T11:11:46.148Z,74.2353
2023-05-24T11:12:47.870Z,74.9825
2023-05-24T11:13:49.608Z,74.3119
2023-05-24T11:14:51.436Z,74.9124
2023-05-24T11:15:53.169Z,73.9239
2023-05-24T11:16:55.018Z,72.9802
2023-05-24T11:17:56.763Z,73.9612
2023-05-24T11:18:58.462Z,73.7566
2023-05-24T11:20:00.255Z,74.1517
2023-05-24T11:21:02.009Z,75.2588
2023-05-24T11:22:03.764Z,74.3364
2023-05-24T11:23:05.499Z,74.7250
2023-05-24T11:24:07.317Z,74.6198
2023-05-24T11:25:09.104Z,74.5062
2023-05-24T11:26:10.823Z,73.8583
2023-05-24T11:27:12.611Z,74.2217
2023-05-24T11:28:14.407Z,74.4753
2023-05-24T11:29:16.237Z,75.0776
2023-05-24T11:30:17.938Z,74.1050
2023-05-24T11:31:19.749Z,74.0049
2023-05-24T11:32:21.681Z,74.8149
2023-05-24T11:33:23.397Z,73.6981
2023-05-24T11:34:25.143Z,74.2675
2023-05-24T11:35:26.892Z,74.0412
2023-05-24T11:36:28.801Z,73.8217
2023-05-24T11:37:45.592Z,74.0131
2023-05-24T11:38:33.058Z,74.2049
2023-05-24T11:39:36.052Z,74.7029
2023-05-24T11:40:37.979Z,74.3664
2023-05-24T11:41:41.822Z,73.8367
2023-05-24T11:42:40.445Z,73.0448
2023-05-24T11:43:42.388Z,73.7668
2023-05-24T11:44:52.275Z,73.5332
2023-05-24T11:45:47.471Z,74.3653
2023-05-24T11:46:49.196Z,74.9040
2023-05-24T11:47:51.011Z,73.6523
2023-05-24T11:48:52.732Z,74.5714
2023-05-24T11:49:54.453Z,74.4645
2023-05-24T11:50:56.435Z,73.1811
2023-05-24T11:51:58.288Z,74.9975
2023-05-24T11:53:00.052Z,74.6966
2023-05-24T11:54:01.785Z,74.1368
2023-05-24T11:55:03.502Z,75.4456
2023-05-24T11:56:05.339Z,73.1639
2023-05-24T11:57:07.013Z,72.7532
2023-05-24T11:58:08.777Z,73.9982
2023-05-24T11:59:10.466Z,72.6049
2023-05-24T12:00:12.222Z,72.6203
2023-05-24T12:01:13.989Z,72.6486
2023-05-24T12:02:15.953Z,73.1841
2023-05-24T12:03:17.844Z,72.9436
2023-05-24T12:04:19.802Z,74.3355
2023-05-24T12:05:21.541Z,73.6793
2023-05-24T12:06:23.264Z,72.5697
2023-05-24T12:07:24.961Z,72.7759
2023-05-24T12:08:26.712Z,73.2718
2023-05-24T12:09:28.478Z,70.9175
2023-05-24T12:10:30.197Z,72.7657
2023-05-24T12:11:31.957Z,72.4566
2023-05-24T12:12:42.293Z,71.8548
2023-05-24T12:13:34.869Z,71.6782
2023-05-24T12:14:36.625Z,72.6472
2023-05-24T12:15:38.426Z,72.0853
2023-05-24T12:16:40.190Z,72.8612
2023-05-24T12:17:41.980Z,71.5365
2023-05-24T12:18:55.069Z,71.3497
2023-05-24T12:19:44.848Z,70.3292
2023-05-24T12:20:46.865Z,69.8096
2023-05-24T12:21:48.735Z,69.4960
2023-05-24T12:22:50.667Z,70.9339
2023-05-24T12:23:52.657Z,72.0400
2023-05-24T12:24:54.511Z,71.9453
2023-05-24T12:25:56.232Z,70.8721
2023-05-24T12:26:58.170Z,71.9476
2023-05-24T12:27:59.981Z,69.3449
2023-05-24T12:29:01.724Z,69.6460
2023-05-24T12:30:03.428Z,71.5438
2023-05-24T12:31:07.970Z,70.3051
2023-05-24T12:32:06.430Z,69.6364
2023-05-24T12:33:08.205Z,70.1392